sensor_id;sensor_type;location;lat;lon;timestamp;temperature;humidity
71868;DHT22;59738;48.324;14.230;2022-08-02T00:01:15;19.20;89.00
71868;DHT22;59738;48.324;14.230;2022-08-02T00:03:44;19.10;90.10
71868;DHT22;59738;48.324;14.230;2022-08-02T00:06:12;19.00;91.50
71868;DHT22;59738;48.324;14.230;2022-08-02T00:08:39;19.00;92.60
71868;DHT22;59738;48.324;14.230;2022-08-02T00:11:07;19.00;93.40
71868;DHT22;59738;48.324;14.230;2022-08-02T00:13:35;19.10;95.00
71868;DHT22;59738;48.324;14.230;2022-08-02T00:16:03;19.10;96.00
71868;DHT22;59738;48.324;14.230;2022-08-02T00:18:31;19.10;96.80
71868;DHT22;59738;48.324;14.230;2022-08-02T00:21:00;19.10;97.50
71868;DHT22;59738;48.324;14.230;2022-08-02T00:23:28;19.20;98.10
71868;DHT22;59738;48.324;14.230;2022-08-02T00:25:56;19.20;99.00
71868;DHT22;59738;48.324;14.230;2022-08-02T00:28:25;19.20;98.90
71868;DHT22;59738;48.324;14.230;2022-08-02T00:30:52;19.10;99.10
71868;DHT22;59738;48.324;14.230;2022-08-02T00:33:20;19.00;99.50
71868;DHT22;59738;48.324;14.230;2022-08-02T00:35:48;19.00;99.90
71868;DHT22;59738;48.324;14.230;2022-08-02T00:38:17;19.00;99.90
71868;DHT22;59738;48.324;14.230;2022-08-02T00:40:46;19.10;99.90
71868;DHT22;59738;48.324;14.230;2022-08-02T00:43:14;19.00;99.80
71868;DHT22;59738;48.324;14.230;2022-08-02T00:45:42;19.10;99.90
71868;DHT22;59738;48.324;14.230;2022-08-02T00:48:11;19.00;99.90
71868;DHT22;59738;48.324;14.230;2022-08-02T00:50:40;19.00;99.90
71868;DHT22;59738;48.324;14.230;2022-08-02T00:53:08;19.10;99.90
71868;DHT22;59738;48.324;14.230;2022-08-02T00:55:37;19.10;99.90
71868;DHT22;59738;48.324;14.230;2022-08-02T00:58:05;19.10;99.90
71868;DHT22;59738;48.324;14.230;2022-08-02T01:00:33;19.10;99.90
71868;DHT22;59738;48.324;14.230;2022-08-02T01:03:01;19.10;99.40
71868;DHT22;59738;48.324;14.230;2022-08-02T01:05:29;19.20;99.10
71868;DHT22;59738;48.324;14.230;2022-08-02T01:07:57;19.20;99.30
71868;DHT22;59738;48.324;14.230;2022-08-02T01:10:25;19.20;98.80
71868;DHT22;59738;48.324;14.230;2022-08-02T01:12:54;19.30;99.60
71868;DHT22;59738;48.324;14.230;2022-08-02T01:15:22;19.30;98.50
71868;DHT22;59738;48.324;14.230;2022-08-02T01:17:53;19.30;99.60
71868;DHT22;59738;48.324;14.230;2022-08-02T01:20:45;19.30;99.90
71868;DHT22;59738;48.324;14.230;2022-08-02T01:23:32;19.30;99.90
71868;DHT22;59738;48.324;14.230;2022-08-02T01:26:28;19.30;99.60
71868;DHT22;59738;48.324;14.230;2022-08-02T01:29:01;19.30;99.90
71868;DHT22;59738;48.324;14.230;2022-08-02T01:31:34;19.30;99.90
71868;DHT22;59738;48.324;14.230;2022-08-02T01:34:12;19.30;99.90
71868;DHT22;59738;48.324;14.230;2022-08-02T01:36:46;19.40;99.70
71868;DHT22;59738;48.324;14.230;2022-08-02T01:39:17;19.30;99.40
71868;DHT22;59738;48.324;14.230;2022-08-02T01:41:47;19.40;98.50
71868;DHT22;59738;48.324;14.230;2022-08-02T01:44:18;19.40;97.40
71868;DHT22;59738;48.324;14.230;2022-08-02T01:46:48;19.40;97.40
71868;DHT22;59738;48.324;14.230;2022-08-02T01:49:19;19.40;98.30
71868;DHT22;59738;48.324;14.230;2022-08-02T01:51:50;19.50;97.70
71868;DHT22;59738;48.324;14.230;2022-08-02T01:54:36;19.50;96.10
71868;DHT22;59738;48.324;14.230;2022-08-02T01:57:05;19.50;96.50
71868;DHT22;59738;48.324;14.230;2022-08-02T01:59:35;19.50;96.80
71868;DHT22;59738;48.324;14.230;2022-08-02T02:02:07;19.50;95.10
71868;DHT22;59738;48.324;14.230;2022-08-02T02:04:36;19.60;97.00
71868;DHT22;59738;48.324;14.230;2022-08-02T02:07:05;19.70;96.90
71868;DHT22;59738;48.324;14.230;2022-08-02T02:09:37;19.80;96.90
71868;DHT22;59738;48.324;14.230;2022-08-02T02:12:07;19.80;97.20
71868;DHT22;59738;48.324;14.230;2022-08-02T02:14:37;19.80;97.90
71868;DHT22;59738;48.324;14.230;2022-08-02T02:17:07;19.80;98.70
71868;DHT22;59738;48.324;14.230;2022-08-02T02:19:36;19.70;98.80
71868;DHT22;59738;48.324;14.230;2022-08-02T02:22:04;19.70;98.40
71868;DHT22;59738;48.324;14.230;2022-08-02T02:24:32;19.70;98.30
71868;DHT22;59738;48.324;14.230;2022-08-02T02:27:00;19.60;96.40
71868;DHT22;59738;48.324;14.230;2022-08-02T02:29:31;19.70;96.50
71868;DHT22;59738;48.324;14.230;2022-08-02T02:32:01;19.70;97.50
71868;DHT22;59738;48.324;14.230;2022-08-02T02:34:33;19.70;98.20
71868;DHT22;59738;48.324;14.230;2022-08-02T02:37:05;19.70;98.20
71868;DHT22;59738;48.324;14.230;2022-08-02T02:39:36;19.50;98.80
71868;DHT22;59738;48.324;14.230;2022-08-02T02:42:08;19.60;99.90
71868;DHT22;59738;48.324;14.230;2022-08-02T02:44:38;19.50;99.70
71868;DHT22;59738;48.324;14.230;2022-08-02T02:47:08;19.40;99.90
71868;DHT22;59738;48.324;14.230;2022-08-02T02:49:37;19.20;99.90
71868;DHT22;59738;48.324;14.230;2022-08-02T02:52:05;19.10;99.90
71868;DHT22;59738;48.324;14.230;2022-08-02T02:54:35;19.00;99.90
71868;DHT22;59738;48.324;14.230;2022-08-02T02:57:05;19.00;99.90
71868;DHT22;59738;48.324;14.230;2022-08-02T02:59:34;18.90;99.90
71868;DHT22;59738;48.324;14.230;2022-08-02T03:02:02;18.70;99.90
71868;DHT22;59738;48.324;14.230;2022-08-02T03:04:33;18.70;99.90
71868;DHT22;59738;48.324;14.230;2022-08-02T03:07:02;18.70;99.90
71868;DHT22;59738;48.324;14.230;2022-08-02T03:09:30;18.70;99.90
71868;DHT22;59738;48.324;14.230;2022-08-02T03:11:58;18.70;99.90
71868;DHT22;59738;48.324;14.230;2022-08-02T03:14:25;18.60;99.90
71868;DHT22;59738;48.324;14.230;2022-08-02T03:16:53;18.70;99.90
71868;DHT22;59738;48.324;14.230;2022-08-02T03:19:22;18.70;99.90
71868;DHT22;59738;48.324;14.230;2022-08-02T03:21:51;18.70;99.90
71868;DHT22;59738;48.324;14.230;2022-08-02T03:24:19;18.80;99.90
71868;DHT22;59738;48.324;14.230;2022-08-02T03:26:46;18.70;99.90
71868;DHT22;59738;48.324;14.230;2022-08-02T03:29:14;18.60;99.90
71868;DHT22;59738;48.324;14.230;2022-08-02T03:31:44;18.60;99.90
71868;DHT22;59738;48.324;14.230;2022-08-02T03:34:12;18.70;99.90
71868;DHT22;59738;48.324;14.230;2022-08-02T03:36:41;18.60;99.90
71868;DHT22;59738;48.324;14.230;2022-08-02T03:39:11;18.50;99.90
71868;DHT22;59738;48.324;14.230;2022-08-02T03:41:40;18.50;99.90
71868;DHT22;59738;48.324;14.230;2022-08-02T03:44:08;18.50;99.90
71868;DHT22;59738;48.324;14.230;2022-08-02T03:46:37;18.50;99.90
71868;DHT22;59738;48.324;14.230;2022-08-02T03:49:06;18.60;99.90
71868;DHT22;59738;48.324;14.230;2022-08-02T03:51:34;18.50;99.90
71868;DHT22;59738;48.324;14.230;2022-08-02T03:54:02;18.40;99.90
71868;DHT22;59738;48.324;14.230;2022-08-02T03:56:33;18.60;99.90
71868;DHT22;59738;48.324;14.230;2022-08-02T03:59:05;18.50;99.90
71868;DHT22;59738;48.324;14.230;2022-08-02T04:01:33;18.40;99.90
71868;DHT22;59738;48.324;14.230;2022-08-02T04:04:01;18.40;99.90
71868;DHT22;59738;48.324;14.230;2022-08-02T04:06:29;18.30;99.90
71868;DHT22;59738;48.324;14.230;2022-08-02T04:08:56;18.20;99.90
71868;DHT22;59738;48.324;14.230;2022-08-02T04:11:24;18.30;99.90
71868;DHT22;59738;48.324;14.230;2022-08-02T04:14:00;18.30;99.90
71868;DHT22;59738;48.324;14.230;2022-08-02T04:16:33;18.30;99.90
71868;DHT22;59738;48.324;14.230;2022-08-02T04:19:07;18.20;99.90
71868;DHT22;59738;48.324;14.230;2022-08-02T04:21:38;18.20;99.90
71868;DHT22;59738;48.324;14.230;2022-08-02T04:24:08;18.10;99.90
71868;DHT22;59738;48.324;14.230;2022-08-02T04:26:37;18.00;99.90
71868;DHT22;59738;48.324;14.230;2022-08-02T04:29:07;17.90;99.90
71868;DHT22;59738;48.324;14.230;2022-08-02T04:31:35;17.90;99.90
71868;DHT22;59738;48.324;14.230;2022-08-02T04:34:03;17.90;99.90
71868;DHT22;59738;48.324;14.230;2022-08-02T04:36:31;17.90;99.90
71868;DHT22;59738;48.324;14.230;2022-08-02T04:39:00;17.80;99.90
71868;DHT22;59738;48.324;14.230;2022-08-02T04:41:38;17.80;99.90
71868;DHT22;59738;48.324;14.230;2022-08-02T04:44:07;17.70;99.90
71868;DHT22;59738;48.324;14.230;2022-08-02T04:46:35;17.70;99.90
71868;DHT22;59738;48.324;14.230;2022-08-02T04:49:03;17.70;99.90
71868;DHT22;59738;48.324;14.230;2022-08-02T04:51:33;17.70;99.90
71868;DHT22;59738;48.324;14.230;2022-08-02T04:54:01;17.80;99.90
71868;DHT22;59738;48.324;14.230;2022-08-02T04:56:29;17.90;99.90
71868;DHT22;59738;48.324;14.230;2022-08-02T04:58:56;18.10;99.90
71868;DHT22;59738;48.324;14.230;2022-08-02T05:01:26;18.20;99.90
71868;DHT22;59738;48.324;14.230;2022-08-02T05:03:53;18.30;99.90
71868;DHT22;59738;48.324;14.230;2022-08-02T05:06:21;18.30;99.90
71868;DHT22;59738;48.324;14.230;2022-08-02T05:08:49;18.30;99.90
71868;DHT22;59738;48.324;14.230;2022-08-02T05:11:17;18.20;99.90
71868;DHT22;59738;48.324;14.230;2022-08-02T05:13:45;18.40;99.90
71868;DHT22;59738;48.324;14.230;2022-08-02T05:16:12;18.40;99.90
71868;DHT22;59738;48.324;14.230;2022-08-02T05:18:42;18.50;99.90
71868;DHT22;59738;48.324;14.230;2022-08-02T05:21:09;18.40;99.90
71868;DHT22;59738;48.324;14.230;2022-08-02T05:23:37;18.40;99.90
71868;DHT22;59738;48.324;14.230;2022-08-02T05:26:05;18.40;99.90
71868;DHT22;59738;48.324;14.230;2022-08-02T05:28:32;18.40;99.90
71868;DHT22;59738;48.324;14.230;2022-08-02T05:31:00;18.50;99.90
71868;DHT22;59738;48.324;14.230;2022-08-02T05:33:28;18.60;99.90
71868;DHT22;59738;48.324;14.230;2022-08-02T05:35:57;18.70;99.90
71868;DHT22;59738;48.324;14.230;2022-08-02T05:38:25;18.80;99.90
71868;DHT22;59738;48.324;14.230;2022-08-02T05:40:56;18.90;99.90
71868;DHT22;59738;48.324;14.230;2022-08-02T05:43:24;18.90;99.90
71868;DHT22;59738;48.324;14.230;2022-08-02T05:45:51;18.90;99.90
71868;DHT22;59738;48.324;14.230;2022-08-02T05:48:20;19.00;99.90
71868;DHT22;59738;48.324;14.230;2022-08-02T05:50:54;19.00;99.90
71868;DHT22;59738;48.324;14.230;2022-08-02T05:53:30;19.10;99.90
71868;DHT22;59738;48.324;14.230;2022-08-02T05:56:09;19.20;99.90
71868;DHT22;59738;48.324;14.230;2022-08-02T05:58:48;19.30;99.90
71868;DHT22;59738;48.324;14.230;2022-08-02T06:01:24;19.40;99.90
71868;DHT22;59738;48.324;14.230;2022-08-02T06:03:55;19.40;99.90
71868;DHT22;59738;48.324;14.230;2022-08-02T06:06:24;19.50;99.90
71868;DHT22;59738;48.324;14.230;2022-08-02T06:08:58;19.40;99.90
71868;DHT22;59738;48.324;14.230;2022-08-02T06:11:35;19.30;99.90
71868;DHT22;59738;48.324;14.230;2022-08-02T06:14:04;19.30;99.90
71868;DHT22;59738;48.324;14.230;2022-08-02T06:16:32;19.40;99.90
71868;DHT22;59738;48.324;14.230;2022-08-02T06:19:01;19.40;99.90
71868;DHT22;59738;48.324;14.230;2022-08-02T06:21:29;19.60;99.90
71868;DHT22;59738;48.324;14.230;2022-08-02T06:23:59;19.70;99.90
71868;DHT22;59738;48.324;14.230;2022-08-02T06:26:27;19.70;99.90
71868;DHT22;59738;48.324;14.230;2022-08-02T06:28:56;19.80;99.90
71868;DHT22;59738;48.324;14.230;2022-08-02T06:31:24;20.00;99.90
71868;DHT22;59738;48.324;14.230;2022-08-02T06:33:52;20.10;99.90
71868;DHT22;59738;48.324;14.230;2022-08-02T06:36:26;20.20;99.90
71868;DHT22;59738;48.324;14.230;2022-08-02T06:39:03;20.20;99.90
71868;DHT22;59738;48.324;14.230;2022-08-02T06:41:37;20.20;99.90
71868;DHT22;59738;48.324;14.230;2022-08-02T06:44:13;20.20;99.90
71868;DHT22;59738;48.324;14.230;2022-08-02T06:46:40;20.60;99.90
71868;DHT22;59738;48.324;14.230;2022-08-02T06:49:08;20.60;99.90
71868;DHT22;59738;48.324;14.230;2022-08-02T06:51:36;20.60;99.90
71868;DHT22;59738;48.324;14.230;2022-08-02T06:54:05;20.30;99.90
71868;DHT22;59738;48.324;14.230;2022-08-02T06:56:33;20.40;99.90
71868;DHT22;59738;48.324;14.230;2022-08-02T06:59:01;20.50;99.90
71868;DHT22;59738;48.324;14.230;2022-08-02T07:01:28;20.60;99.90
71868;DHT22;59738;48.324;14.230;2022-08-02T07:03:56;20.40;99.90
71868;DHT22;59738;48.324;14.230;2022-08-02T07:06:24;20.50;99.90
71868;DHT22;59738;48.324;14.230;2022-08-02T07:08:52;20.60;99.90
71868;DHT22;59738;48.324;14.230;2022-08-02T07:11:21;20.80;99.90
71868;DHT22;59738;48.324;14.230;2022-08-02T07:13:49;21.30;99.90
71868;DHT22;59738;48.324;14.230;2022-08-02T07:16:17;21.30;99.90
71868;DHT22;59738;48.324;14.230;2022-08-02T07:18:44;21.10;99.90
71868;DHT22;59738;48.324;14.230;2022-08-02T07:21:12;21.10;99.90
71868;DHT22;59738;48.324;14.230;2022-08-02T07:23:40;21.70;99.90
71868;DHT22;59738;48.324;14.230;2022-08-02T07:26:07;21.90;99.90
71868;DHT22;59738;48.324;14.230;2022-08-02T07:28:36;22.60;97.70
71868;DHT22;59738;48.324;14.230;2022-08-02T07:31:04;22.80;98.00
71868;DHT22;59738;48.324;14.230;2022-08-02T07:33:32;21.80;96.90
71868;DHT22;59738;48.324;14.230;2022-08-02T07:36:00;21.90;97.30
71868;DHT22;59738;48.324;14.230;2022-08-02T07:38:28;21.50;98.80
71868;DHT22;59738;48.324;14.230;2022-08-02T07:40:56;21.30;99.10
71868;DHT22;59738;48.324;14.230;2022-08-02T07:43:23;22.00;94.90
71868;DHT22;59738;48.324;14.230;2022-08-02T07:45:52;22.50;96.50
71868;DHT22;59738;48.324;14.230;2022-08-02T07:48:20;22.90;89.60
71868;DHT22;59738;48.324;14.230;2022-08-02T07:50:48;23.40;90.70
71868;DHT22;59738;48.324;14.230;2022-08-02T07:53:16;23.00;89.20
71868;DHT22;59738;48.324;14.230;2022-08-02T07:55:43;23.00;89.50
71868;DHT22;59738;48.324;14.230;2022-08-02T07:58:11;22.70;90.70
71868;DHT22;59738;48.324;14.230;2022-08-02T08:00:40;22.60;85.10
71868;DHT22;59738;48.324;14.230;2022-08-02T08:03:10;22.90;79.60
71868;DHT22;59738;48.324;14.230;2022-08-02T08:05:38;23.60;82.90
71868;DHT22;59738;48.324;14.230;2022-08-02T08:08:06;23.90;80.80
71868;DHT22;59738;48.324;14.230;2022-08-02T08:10:34;23.10;78.30
71868;DHT22;59738;48.324;14.230;2022-08-02T08:13:01;22.50;80.90
71868;DHT22;59738;48.324;14.230;2022-08-02T08:15:29;22.20;82.60
71868;DHT22;59738;48.324;14.230;2022-08-02T08:17:57;22.20;89.00
71868;DHT22;59738;48.324;14.230;2022-08-02T08:20:26;22.90;83.70
71868;DHT22;59738;48.324;14.230;2022-08-02T08:22:54;23.90;82.60
71868;DHT22;59738;48.324;14.230;2022-08-02T08:25:21;24.60;71.10
71868;DHT22;59738;48.324;14.230;2022-08-02T08:27:50;24.90;70.30
71868;DHT22;59738;48.324;14.230;2022-08-02T08:30:19;24.70;65.80
71868;DHT22;59738;48.324;14.230;2022-08-02T08:32:47;24.90;69.60
71868;DHT22;59738;48.324;14.230;2022-08-02T08:35:15;25.10;70.30
71868;DHT22;59738;48.324;14.230;2022-08-02T08:37:44;25.20;61.70
71868;DHT22;59738;48.324;14.230;2022-08-02T08:40:12;25.10;62.60
71868;DHT22;59738;48.324;14.230;2022-08-02T08:42:40;25.10;61.20
71868;DHT22;59738;48.324;14.230;2022-08-02T08:45:09;24.60;65.50
71868;DHT22;59738;48.324;14.230;2022-08-02T08:47:38;24.10;66.70
71868;DHT22;59738;48.324;14.230;2022-08-02T08:50:08;23.90;68.50
71868;DHT22;59738;48.324;14.230;2022-08-02T08:52:41;23.90;70.70
71868;DHT22;59738;48.324;14.230;2022-08-02T08:55:10;24.70;68.70
71868;DHT22;59738;48.324;14.230;2022-08-02T08:57:40;25.00;61.90
71868;DHT22;59738;48.324;14.230;2022-08-02T09:00:10;24.70;62.00
71868;DHT22;59738;48.324;14.230;2022-08-02T09:02:40;24.40;66.90
71868;DHT22;59738;48.324;14.230;2022-08-02T09:05:09;23.90;66.30
71868;DHT22;59738;48.324;14.230;2022-08-02T09:07:38;23.60;67.50
71868;DHT22;59738;48.324;14.230;2022-08-02T09:10:35;23.70;67.60
71868;DHT22;59738;48.324;14.230;2022-08-02T09:13:11;24.40;64.90
71868;DHT22;59738;48.324;14.230;2022-08-02T09:15:42;25.00;60.70
71868;DHT22;59738;48.324;14.230;2022-08-02T09:18:11;25.50;64.50
71868;DHT22;59738;48.324;14.230;2022-08-02T09:20:54;25.90;63.30
71868;DHT22;59738;48.324;14.230;2022-08-02T09:23:24;25.20;60.00
71868;DHT22;59738;48.324;14.230;2022-08-02T09:25:59;25.60;60.40
71868;DHT22;59738;48.324;14.230;2022-08-02T09:28:28;25.90;56.00
71868;DHT22;59738;48.324;14.230;2022-08-02T09:30:57;26.30;54.00
71868;DHT22;59738;48.324;14.230;2022-08-02T09:33:26;27.30;54.20
71868;DHT22;59738;48.324;14.230;2022-08-02T09:35:59;27.20;53.50
71868;DHT22;59738;48.324;14.230;2022-08-02T09:38:27;28.10;49.70
71868;DHT22;59738;48.324;14.230;2022-08-02T09:40:57;27.10;49.50
71868;DHT22;59738;48.324;14.230;2022-08-02T09:43:36;26.40;51.20
71868;DHT22;59738;48.324;14.230;2022-08-02T09:46:11;26.00;51.90
71868;DHT22;59738;48.324;14.230;2022-08-02T09:48:48;26.00;52.10
71868;DHT22;59738;48.324;14.230;2022-08-02T09:51:19;27.00;55.10
71868;DHT22;59738;48.324;14.230;2022-08-02T09:53:49;27.30;47.10
71868;DHT22;59738;48.324;14.230;2022-08-02T09:56:20;27.80;49.90
71868;DHT22;59738;48.324;14.230;2022-08-02T09:58:49;27.60;48.60
71868;DHT22;59738;48.324;14.230;2022-08-02T10:01:19;26.60;50.50
71868;DHT22;59738;48.324;14.230;2022-08-02T10:03:54;26.00;49.90
71868;DHT22;59738;48.324;14.230;2022-08-02T10:06:22;26.40;51.60
71868;DHT22;59738;48.324;14.230;2022-08-02T10:08:51;27.60;50.70
71868;DHT22;59738;48.324;14.230;2022-08-02T10:11:21;27.90;48.70
71868;DHT22;59738;48.324;14.230;2022-08-02T10:13:50;27.60;46.00
71868;DHT22;59738;48.324;14.230;2022-08-02T10:16:19;28.40;44.90
71868;DHT22;59738;48.324;14.230;2022-08-02T10:18:49;27.90;46.70
71868;DHT22;59738;48.324;14.230;2022-08-02T10:21:21;27.80;44.20
71868;DHT22;59738;48.324;14.230;2022-08-02T10:23:59;27.80;45.20
71868;DHT22;59738;48.324;14.230;2022-08-02T10:26:28;27.40;45.50
71868;DHT22;59738;48.324;14.230;2022-08-02T10:28:57;27.40;49.00
71868;DHT22;59738;48.324;14.230;2022-08-02T10:31:27;27.10;49.70
71868;DHT22;59738;48.324;14.230;2022-08-02T10:33:59;26.60;50.10
71868;DHT22;59738;48.324;14.230;2022-08-02T10:36:29;26.60;52.20
71868;DHT22;59738;48.324;14.230;2022-08-02T10:38:58;26.90;49.90
71868;DHT22;59738;48.324;14.230;2022-08-02T10:41:42;27.30;46.90
71868;DHT22;59738;48.324;14.230;2022-08-02T10:44:27;27.50;46.20
71868;DHT22;59738;48.324;14.230;2022-08-02T10:47:18;27.50;46.80
71868;DHT22;59738;48.324;14.230;2022-08-02T10:49:48;27.60;50.80
71868;DHT22;59738;48.324;14.230;2022-08-02T10:52:16;27.90;47.60
71868;DHT22;59738;48.324;14.230;2022-08-02T10:54:48;28.10;41.70
71868;DHT22;59738;48.324;14.230;2022-08-02T10:57:20;27.80;44.30
71868;DHT22;59738;48.324;14.230;2022-08-02T10:59:48;28.30;46.40
71868;DHT22;59738;48.324;14.230;2022-08-02T11:02:41;28.30;47.50
71868;DHT22;59738;48.324;14.230;2022-08-02T11:05:11;28.20;44.60
71868;DHT22;59738;48.324;14.230;2022-08-02T11:07:42;26.30;51.30
71868;DHT22;59738;48.324;14.230;2022-08-02T11:10:30;26.80;52.60
71868;DHT22;59738;48.324;14.230;2022-08-02T11:13:07;26.30;51.90
71868;DHT22;59738;48.324;14.230;2022-08-02T11:15:53;26.10;54.10
71868;DHT22;59738;48.324;14.230;2022-08-02T11:19:01;26.10;53.10
71868;DHT22;59738;48.324;14.230;2022-08-02T11:21:30;26.20;51.60
71868;DHT22;59738;48.324;14.230;2022-08-02T11:24:28;26.40;51.70
71868;DHT22;59738;48.324;14.230;2022-08-02T11:26:57;26.80;53.10
71868;DHT22;59738;48.324;14.230;2022-08-02T11:29:34;26.30;52.00
71868;DHT22;59738;48.324;14.230;2022-08-02T11:32:03;25.70;54.90
71868;DHT22;59738;48.324;14.230;2022-08-02T11:34:31;26.10;53.70
71868;DHT22;59738;48.324;14.230;2022-08-02T11:36:59;25.80;51.70
71868;DHT22;59738;48.324;14.230;2022-08-02T11:39:27;25.70;51.20
71868;DHT22;59738;48.324;14.230;2022-08-02T11:41:56;25.40;50.70
71868;DHT22;59738;48.324;14.230;2022-08-02T11:44:24;25.70;50.10
71868;DHT22;59738;48.324;14.230;2022-08-02T11:46:55;25.90;48.10
71868;DHT22;59738;48.324;14.230;2022-08-02T11:49:23;26.00;51.60
71868;DHT22;59738;48.324;14.230;2022-08-02T11:51:52;26.50;53.20
71868;DHT22;59738;48.324;14.230;2022-08-02T11:54:24;26.80;50.70
71868;DHT22;59738;48.324;14.230;2022-08-02T11:56:52;27.10;46.40
71868;DHT22;59738;48.324;14.230;2022-08-02T11:59:20;26.80;47.20
71868;DHT22;59738;48.324;14.230;2022-08-02T12:01:48;26.70;43.80
71868;DHT22;59738;48.324;14.230;2022-08-02T12:04:18;26.90;47.40
71868;DHT22;59738;48.324;14.230;2022-08-02T12:06:53;27.00;44.60
71868;DHT22;59738;48.324;14.230;2022-08-02T12:09:21;27.30;46.10
71868;DHT22;59738;48.324;14.230;2022-08-02T12:11:49;27.50;43.70
71868;DHT22;59738;48.324;14.230;2022-08-02T12:14:17;28.00;44.00
71868;DHT22;59738;48.324;14.230;2022-08-02T12:16:46;28.10;41.40
71868;DHT22;59738;48.324;14.230;2022-08-02T12:19:33;27.80;45.80
71868;DHT22;59738;48.324;14.230;2022-08-02T12:22:16;27.80;42.00
71868;DHT22;59738;48.324;14.230;2022-08-02T12:24:47;27.40;42.80
71868;DHT22;59738;48.324;14.230;2022-08-02T12:27:29;27.40;45.50
71868;DHT22;59738;48.324;14.230;2022-08-02T12:29:59;27.10;43.60
71868;DHT22;59738;48.324;14.230;2022-08-02T12:32:27;27.30;47.00
71868;DHT22;59738;48.324;14.230;2022-08-02T12:35:06;27.40;48.10
71868;DHT22;59738;48.324;14.230;2022-08-02T12:37:35;27.50;40.20
71868;DHT22;59738;48.324;14.230;2022-08-02T12:40:21;27.60;42.20
71868;DHT22;59738;48.324;14.230;2022-08-02T12:42:51;27.80;42.40
71868;DHT22;59738;48.324;14.230;2022-08-02T12:45:19;27.70;43.30
71868;DHT22;59738;48.324;14.230;2022-08-02T12:47:49;28.10;45.00
71868;DHT22;59738;48.324;14.230;2022-08-02T12:50:20;28.10;42.60
71868;DHT22;59738;48.324;14.230;2022-08-02T12:52:48;28.50;40.80
71868;DHT22;59738;48.324;14.230;2022-08-02T12:55:19;28.50;37.60
71868;DHT22;59738;48.324;14.230;2022-08-02T12:57:54;28.80;38.90
71868;DHT22;59738;48.324;14.230;2022-08-02T13:00:24;29.00;37.10
71868;DHT22;59738;48.324;14.230;2022-08-02T13:02:52;29.20;40.30
71868;DHT22;59738;48.324;14.230;2022-08-02T13:05:21;29.50;35.10
71868;DHT22;59738;48.324;14.230;2022-08-02T13:07:49;28.60;36.80
71868;DHT22;59738;48.324;14.230;2022-08-02T13:10:17;28.40;36.90
71868;DHT22;59738;48.324;14.230;2022-08-02T13:12:45;28.10;35.00
71868;DHT22;59738;48.324;14.230;2022-08-02T13:15:13;28.10;35.50
71868;DHT22;59738;48.324;14.230;2022-08-02T13:17:41;28.40;34.30
71868;DHT22;59738;48.324;14.230;2022-08-02T13:20:09;28.10;31.30
71868;DHT22;59738;48.324;14.230;2022-08-02T13:22:39;28.00;32.70
71868;DHT22;59738;48.324;14.230;2022-08-02T13:25:08;28.10;33.40
71868;DHT22;59738;48.324;14.230;2022-08-02T13:27:36;28.20;32.90
71868;DHT22;59738;48.324;14.230;2022-08-02T13:30:05;28.50;32.80
71868;DHT22;59738;48.324;14.230;2022-08-02T13:32:33;28.50;29.90
71868;DHT22;59738;48.324;14.230;2022-08-02T13:35:01;28.40;30.00
71868;DHT22;59738;48.324;14.230;2022-08-02T13:37:29;28.30;29.50
71868;DHT22;59738;48.324;14.230;2022-08-02T13:39:58;28.40;28.60
71868;DHT22;59738;48.324;14.230;2022-08-02T13:42:26;28.60;30.70
71868;DHT22;59738;48.324;14.230;2022-08-02T13:44:53;28.30;33.60
71868;DHT22;59738;48.324;14.230;2022-08-02T13:47:21;28.80;32.60
71868;DHT22;59738;48.324;14.230;2022-08-02T13:49:49;29.00;34.40
71868;DHT22;59738;48.324;14.230;2022-08-02T13:52:17;28.90;31.50
71868;DHT22;59738;48.324;14.230;2022-08-02T13:54:44;28.50;30.00
71868;DHT22;59738;48.324;14.230;2022-08-02T13:57:13;28.70;31.40
71868;DHT22;59738;48.324;14.230;2022-08-02T13:59:41;28.60;35.20
71868;DHT22;59738;48.324;14.230;2022-08-02T14:02:09;28.70;34.80
71868;DHT22;59738;48.324;14.230;2022-08-02T14:04:37;29.00;35.50
71868;DHT22;59738;48.324;14.230;2022-08-02T14:07:05;28.60;33.30
71868;DHT22;59738;48.324;14.230;2022-08-02T14:09:33;28.50;33.80
71868;DHT22;59738;48.324;14.230;2022-08-02T14:12:01;28.60;33.70
71868;DHT22;59738;48.324;14.230;2022-08-02T14:14:30;28.80;34.30
71868;DHT22;59738;48.324;14.230;2022-08-02T14:16:58;28.70;35.60
71868;DHT22;59738;48.324;14.230;2022-08-02T14:19:26;29.10;34.40
71868;DHT22;59738;48.324;14.230;2022-08-02T14:21:54;29.10;32.50
71868;DHT22;59738;48.324;14.230;2022-08-02T14:24:21;29.40;32.40
71868;DHT22;59738;48.324;14.230;2022-08-02T14:26:49;28.90;33.90
71868;DHT22;59738;48.324;14.230;2022-08-02T14:29:17;28.80;36.30
71868;DHT22;59738;48.324;14.230;2022-08-02T14:31:46;29.00;33.50
71868;DHT22;59738;48.324;14.230;2022-08-02T14:34:14;28.80;31.40
71868;DHT22;59738;48.324;14.230;2022-08-02T14:36:42;28.90;31.90
71868;DHT22;59738;48.324;14.230;2022-08-02T14:39:09;28.70;34.50
71868;DHT22;59738;48.324;14.230;2022-08-02T14:41:37;28.60;33.20
71868;DHT22;59738;48.324;14.230;2022-08-02T14:44:05;28.70;32.40
71868;DHT22;59738;48.324;14.230;2022-08-02T14:46:34;28.70;32.90
71868;DHT22;59738;48.324;14.230;2022-08-02T14:49:04;28.60;32.20
71868;DHT22;59738;48.324;14.230;2022-08-02T14:51:33;28.80;30.00
71868;DHT22;59738;48.324;14.230;2022-08-02T14:54:02;28.90;26.60
71868;DHT22;59738;48.324;14.230;2022-08-02T14:56:30;28.70;29.00
71868;DHT22;59738;48.324;14.230;2022-08-02T14:58:58;28.60;28.10
71868;DHT22;59738;48.324;14.230;2022-08-02T15:01:26;28.70;27.60
71868;DHT22;59738;48.324;14.230;2022-08-02T15:03:54;28.80;28.20
71868;DHT22;59738;48.324;14.230;2022-08-02T15:06:23;28.70;28.30
71868;DHT22;59738;48.324;14.230;2022-08-02T15:08:53;28.10;29.90
71868;DHT22;59738;48.324;14.230;2022-08-02T15:11:21;27.70;28.40
71868;DHT22;59738;48.324;14.230;2022-08-02T15:13:49;27.80;29.40
71868;DHT22;59738;48.324;14.230;2022-08-02T15:16:17;27.90;32.20
71868;DHT22;59738;48.324;14.230;2022-08-02T15:18:44;28.00;31.60
71868;DHT22;59738;48.324;14.230;2022-08-02T15:21:12;28.20;30.30
71868;DHT22;59738;48.324;14.230;2022-08-02T15:23:41;28.40;30.40
71868;DHT22;59738;48.324;14.230;2022-08-02T15:26:09;28.60;29.40
71868;DHT22;59738;48.324;14.230;2022-08-02T15:28:36;28.30;30.60
71868;DHT22;59738;48.324;14.230;2022-08-02T15:31:04;28.50;29.10
71868;DHT22;59738;48.324;14.230;2022-08-02T15:33:32;28.50;29.90